createdAt,value
2019-04-07T00:01:57.309Z,2.27
2019-04-07T00:07:59.819Z,2.60
2019-04-07T00:14:02.096Z,2.58
2019-04-07T00:20:05.452Z,2.58
2019-04-07T00:26:07.706Z,2.62
2019-04-07T00:39:26.056Z,2.65
2019-04-07T00:45:28.305Z,2.37
2019-04-07T00:51:31.059Z,2.95
2019-04-07T00:57:35.433Z,3.10
2019-04-07T01:03:38.084Z,2.62
2019-04-07T01:09:40.365Z,3.40
2019-04-07T01:15:42.777Z,3.72
2019-04-07T01:21:45.791Z,3.83
2019-04-07T01:27:48.097Z,4.42
2019-04-07T01:33:50.572Z,5.05
2019-04-07T01:39:53.730Z,3.52
2019-04-07T01:46:03.808Z,4.03
2019-04-07T01:52:08.370Z,4.25
2019-04-07T01:58:31.676Z,3.42
2019-04-07T02:04:42.435Z,4.28
2019-04-07T02:10:46.982Z,4.45
2019-04-07T02:16:56.800Z,5.15
2019-04-07T02:23:12.822Z,4.58
2019-04-07T02:29:22.635Z,6.20
2019-04-07T02:35:32.888Z,5.03
2019-04-07T02:41:55.214Z,6.97
2019-04-07T02:47:59.762Z,5.65
2019-04-07T02:54:04.399Z,5.87
2019-04-07T03:00:11.964Z,5.97
2019-04-07T03:06:37.309Z,5.60
2019-04-07T03:12:34.442Z,5.35
2019-04-07T03:18:44.988Z,5.22
2019-04-07T03:24:49.758Z,5.22
2019-04-07T03:31:04.129Z,5.47
2019-04-07T03:37:34.392Z,5.55
2019-04-07T03:43:35.897Z,5.62
2019-04-07T03:49:55.350Z,5.92
2019-04-07T03:55:59.946Z,5.97
2019-04-07T04:02:21.616Z,6.72
2019-04-07T04:08:36.792Z,5.80
2019-04-07T04:14:44.037Z,6.45
2019-04-07T04:20:46.532Z,6.50
2019-04-07T04:26:49.985Z,7.53
2019-04-07T04:32:55.438Z,7.15
2019-04-07T04:38:58.006Z,7.85
2019-04-07T04:45:00.617Z,6.80
2019-04-07T04:51:03.503Z,6.05
2019-04-07T04:57:08.911Z,6.30
2019-04-07T05:03:11.356Z,8.28
2019-04-07T05:09:14.554Z,7.55
2019-04-07T05:15:17.533Z,6.70
2019-04-07T05:21:20.712Z,5.78
2019-04-07T05:27:23.906Z,5.80
2019-04-07T05:33:26.680Z,5.58
2019-04-07T05:39:29.403Z,6.17
2019-04-07T05:45:33.785Z,6.90
2019-04-07T05:51:37.058Z,7.03
2019-04-07T05:57:41.497Z,6.05
2019-04-07T06:03:44.026Z,6.72
2019-04-07T06:09:49.951Z,7.10
2019-04-07T06:15:52.894Z,8.88
2019-04-07T06:21:57.968Z,8.60
2019-04-07T06:28:00.621Z,9.13
2019-04-07T06:34:04.200Z,8.55
2019-04-07T06:40:09.115Z,9.80
2019-04-07T06:46:18.666Z,7.97
2019-04-07T06:52:41.033Z,9.53
2019-04-07T06:58:55.835Z,8.13
2019-04-07T07:05:15.685Z,9.10
2019-04-07T07:11:28.060Z,8.45
2019-04-07T07:17:27.953Z,9.10
2019-04-07T07:23:35.112Z,10.25
2019-04-07T07:29:38.663Z,9.50
2019-04-07T07:35:45.524Z,10.18
2019-04-07T07:41:46.462Z,11.22
2019-04-07T07:47:53.238Z,11.68
2019-04-07T07:54:04.660Z,10.58
2019-04-07T08:00:10.292Z,10.32
2019-04-07T08:06:15.031Z,10.55
2019-04-07T08:12:18.507Z,8.85
2019-04-07T08:18:28.573Z,11.22
2019-04-07T08:24:40.604Z,9.60
2019-04-07T08:30:47.465Z,8.80
2019-04-07T08:36:49.512Z,11.12
2019-04-07T08:42:52.328Z,10.25
2019-04-07T08:48:59.366Z,10.05
2019-04-07T08:55:11.367Z,10.48
2019-04-07T09:01:20.319Z,10.35
2019-04-07T09:07:24.531Z,12.50
2019-04-07T09:13:27.669Z,11.93
2019-04-07T09:19:44.316Z,11.60
2019-04-07T09:26:11.081Z,10.85
2019-04-07T09:32:20.949Z,13.15
2019-04-07T09:38:27.279Z,10.43
2019-04-07T09:44:37.839Z,12.23
2019-04-07T09:50:54.970Z,11.38
2019-04-07T09:57:15.609Z,11.88
2019-04-07T10:03:38.155Z,10.95
2019-04-07T10:10:10.139Z,12.55
2019-04-07T10:16:22.704Z,12.47
2019-04-07T10:22:32.803Z,12.60
2019-04-07T10:28:47.666Z,12.37
2019-04-07T10:34:57.537Z,12.68
2019-04-07T10:41:05.760Z,12.43
2019-04-07T10:47:26.194Z,12.43
2019-04-07T10:53:34.336Z,9.75
2019-04-07T10:59:40.465Z,11.55
2019-04-07T11:06:01.853Z,9.70
2019-04-07T11:12:23.240Z,10.93
2019-04-07T11:18:43.067Z,10.13
2019-04-07T11:25:05.363Z,10.75
2019-04-07T11:31:12.759Z,11.88
2019-04-07T11:37:33.791Z,9.70
2019-04-07T11:43:39.175Z,9.88
2019-04-07T11:49:46.173Z,8.40
2019-04-07T11:55:51.050Z,9.53
2019-04-07T12:02:12.562Z,8.73
2019-04-07T12:08:19.241Z,8.03
2019-04-07T12:14:43.015Z,7.45
2019-04-07T12:21:00.963Z,7.60
2019-04-07T12:27:01.735Z,5.83
2019-04-07T12:33:23.704Z,8.20
2019-04-07T12:39:49.520Z,8.10
2019-04-07T12:45:59.305Z,7.15
2019-04-07T12:52:04.352Z,6.05
2019-04-07T12:58:27.878Z,5.72
2019-04-07T13:04:49.033Z,4.85
2019-04-07T13:10:54.705Z,3.55
2019-04-07T13:17:13.778Z,3.90
2019-04-07T13:23:24.447Z,3.30
2019-04-07T13:29:32.267Z,3.60
2019-04-07T13:35:47.591Z,4.47
2019-04-07T13:42:09.874Z,4.65
2019-04-07T13:48:19.586Z,6.92
2019-04-07T13:54:33.851Z,5.00
2019-04-07T14:00:45.325Z,5.75
2019-04-07T14:07:04.066Z,6.30
2019-04-07T14:13:24.611Z,4.80
2019-04-07T14:19:33.250Z,5.10
2019-04-07T14:25:43.451Z,4.92
2019-04-07T14:32:04.522Z,5.42
2019-04-07T14:38:19.008Z,4.67
2019-04-07T14:44:29.328Z,5.35
2019-04-07T14:50:33.662Z,5.20
2019-04-07T14:56:42.109Z,4.72
2019-04-07T15:02:45.512Z,4.58
2019-04-07T15:09:01.880Z,5.60
2019-04-07T15:15:08.815Z,4.72
2019-04-07T15:21:15.627Z,5.08
2019-04-07T15:27:21.934Z,3.67
2019-04-07T15:33:27.360Z,4.50
2019-04-07T15:39:38.114Z,4.30
2019-04-07T15:45:42.674Z,4.72
2019-04-07T15:51:45.660Z,4.35
2019-04-07T15:57:53.510Z,4.42
2019-04-07T16:03:57.027Z,4.15
2019-04-07T16:10:03.768Z,4.03
2019-04-07T16:16:07.844Z,3.58
2019-04-07T16:22:12.429Z,3.65
2019-04-07T16:28:16.161Z,3.20
2019-04-07T16:34:19.309Z,3.45
2019-04-07T16:40:24.935Z,3.50
2019-04-07T16:46:28.685Z,3.47
2019-04-07T16:52:33.157Z,3.50
2019-04-07T16:58:38.708Z,3.83
2019-04-07T17:04:40.976Z,3.80
2019-04-07T17:10:47.036Z,3.80
2019-04-07T17:16:50.395Z,3.17
2019-04-07T17:22:58.763Z,3.80
2019-04-07T17:29:03.011Z,3.45
2019-04-07T17:35:29.589Z,4.35
2019-04-07T17:41:49.871Z,4.08
2019-04-07T17:48:16.870Z,4.17
2019-04-07T17:54:41.379Z,3.70
2019-04-07T18:00:59.646Z,4.35
2019-04-07T18:07:17.569Z,4.55
2019-04-07T18:13:25.091Z,4.42
2019-04-07T18:19:36.233Z,4.67
2019-04-07T18:25:47.883Z,4.33
2019-04-07T18:32:11.211Z,7.20
2019-04-07T18:38:31.515Z,5.83
2019-04-07T18:44:52.420Z,5.15
2019-04-07T18:51:15.950Z,5.37
2019-04-07T18:57:20.602Z,6.08
2019-04-07T19:03:41.864Z,6.33
2019-04-07T19:09:46.143Z,7.45
2019-04-07T19:15:51.260Z,7.87
2019-04-07T19:22:15.818Z,8.93
2019-04-07T19:28:34.083Z,9.53
2019-04-07T19:35:02.026Z,10.78
2019-04-07T19:41:21.549Z,11.45
2019-04-07T19:47:34.431Z,12.55
2019-04-07T19:53:55.788Z,12.55
2019-04-07T20:00:23.267Z,13.78
2019-04-07T20:06:48.444Z,14.25
2019-04-07T20:13:09.901Z,15.28
2019-04-07T20:19:36.174Z,15.70
2019-04-07T20:25:47.934Z,15.95
2019-04-07T20:31:54.717Z,16.17
2019-04-07T20:38:11.498Z,15.85
2019-04-07T20:44:20.847Z,17.30
2019-04-07T20:50:28.221Z,18.55
2019-04-07T20:56:43.675Z,17.80
2019-04-07T21:03:01.469Z,18.62
2019-04-07T21:09:05.817Z,19.05
2019-04-07T21:15:20.827Z,20.60
2019-04-07T21:21:24.077Z,20.00
2019-04-07T21:27:44.021Z,20.48
2019-04-07T21:33:55.803Z,21.33
2019-04-07T21:40:06.035Z,20.60
2019-04-07T21:46:15.399Z,20.85
2019-04-07T21:52:34.471Z,20.32
2019-04-07T21:58:45.221Z,20.62
2019-04-07T22:05:05.246Z,21.62
2019-04-07T22:11:07.745Z,20.48
2019-04-07T22:17:10.426Z,21.50
2019-04-07T22:23:12.689Z,21.20
2019-04-07T22:29:16.137Z,19.27
2019-04-07T22:35:18.877Z,19.67
2019-04-07T22:41:42.646Z,18.57
2019-04-07T22:47:45.072Z,19.48
2019-04-07T22:53:47.643Z,20.23
2019-04-07T22:59:50.411Z,21.57
2019-04-07T23:05:53.324Z,20.80
2019-04-07T23:12:00.512Z,18.52
2019-04-07T23:18:03.175Z,19.87
2019-04-07T23:24:05.714Z,20.50
2019-04-07T23:30:11.020Z,19.98
2019-04-07T23:36:13.700Z,19.82
2019-04-07T23:42:15.987Z,21.05
2019-04-07T23:48:19.526Z,20.20
2019-04-07T23:54:22.575Z,18.73
